Madison, Nebraska
Current Conditions -  °F | °C
As of 3:56 PM on Thursday 18 Dec 2014 (Local Time) from KOFK Reporting Station
Overcast Overcast  
Wind Chill: 24°   Ceiling: 1500
Heat Index: 29°   Visibility: 10mi
Dew Point: 24°   Wind: 5mph
Humidity: 82%   Direction: 210°SSW
Pressure: 30.16"   Gusts: NA
Location:  41.83°N, 97.46°W
Report Text: KOFK 182156Z AUTO 21004KT 10SM OVC015 M02/M04 A3016 RMK AO2 SLP233 T10171044
Loading
Personal Weather Stations






























Interactive Weather Map New forecast layout! Learn more

10-Day Weather Forecast

Advertisements
Track Severe Weather on mobile